Harbor Heights, New York
Current Conditions -  °F | °C
As of 7:35 AM on Friday 24 Oct 2014 (Local Time) from KFRG Reporting Station
Broken Clouds Broken Clouds  
Wind Chill: 51°   Ceiling: 2500
Heat Index: 51°   Visibility: 10mi
Dew Point: 44°   Wind: 8mph
Humidity: 77%   Direction: 320°NW
Pressure: 29.8"   Gusts: NA
Location:  40.8966°N, 73.4362°W
Report Text: KFRG 241135Z 32007KT 10SM BKN025 BKN055 11/07 A2980 RMK AO2 T01060067
Loading
Personal Weather Stations






























Interactive Weather Map
Tropical Storm Tracking
New forecast layout! Learn more

10-Day Weather Forecast

Advertisements
Track Severe Weather on mobile